createdAt,value
2023-04-23T00:00:47.114Z,52.92
2023-04-23T00:03:15.347Z,53.10
2023-04-23T00:05:44.430Z,51.35
2023-04-23T00:08:11.870Z,46.65
2023-04-23T00:10:39.297Z,44.22
2023-04-23T00:13:06.798Z,52.13
2023-04-23T00:15:34.333Z,50.28
2023-04-23T00:18:01.635Z,48.10
2023-04-23T00:20:29.075Z,50.00
2023-04-23T00:22:56.553Z,45.80
2023-04-23T00:25:23.979Z,54.92
2023-04-23T00:27:51.339Z,46.50
2023-04-23T00:30:19.105Z,52.40
2023-04-23T00:32:46.675Z,47.33
2023-04-23T00:35:14.100Z,48.78
2023-04-23T00:37:41.882Z,52.35
2023-04-23T00:40:09.527Z,45.08
2023-04-23T00:42:37.333Z,42.55
2023-04-23T00:45:06.010Z,43.20
2023-04-23T00:47:33.535Z,54.38
2023-04-23T00:50:01.308Z,42.30
2023-04-23T00:52:29.390Z,48.53
2023-04-23T00:54:57.471Z,48.00
2023-04-23T00:57:26.108Z,46.15
2023-04-23T00:59:55.524Z,46.67
2023-04-23T01:06:41.420Z,42.63
2023-04-23T01:09:09.868Z,42.65
2023-04-23T01:11:39.985Z,46.28
2023-04-23T01:14:07.503Z,44.17
2023-04-23T01:16:35.377Z,44.38
2023-04-23T01:19:03.315Z,43.25
2023-04-23T01:21:31.599Z,42.85
2023-04-23T01:23:59.210Z,47.63
2023-04-23T01:26:26.931Z,47.72
2023-04-23T01:28:54.932Z,41.50
2023-04-23T01:31:23.124Z,44.88
2023-04-23T01:33:55.524Z,44.17
2023-04-23T01:36:27.227Z,44.47
2023-04-23T01:38:54.722Z,42.28
2023-04-23T01:41:22.059Z,42.30
2023-04-23T01:43:49.513Z,44.45
2023-04-23T01:46:17.555Z,47.00
2023-04-23T01:48:45.057Z,43.70
2023-04-23T01:51:12.458Z,46.53
2023-04-23T01:53:39.977Z,51.63
2023-04-23T01:56:09.997Z,52.97
2023-04-23T01:58:38.001Z,47.95
2023-04-23T02:01:05.351Z,47.33
2023-04-23T02:03:34.186Z,45.65
2023-04-23T02:06:01.914Z,52.55
2023-04-23T02:08:29.473Z,51.45
2023-04-23T02:10:58.384Z,51.15
2023-04-23T02:13:25.732Z,55.33
2023-04-23T02:20:11.660Z,56.25
2023-04-23T02:22:40.171Z,61.97
2023-04-23T02:25:08.368Z,62.80
2023-04-23T02:27:36.105Z,61.75
2023-04-23T02:30:03.686Z,56.50
2023-04-23T02:36:49.285Z,61.05
2023-04-23T02:39:16.886Z,64.82
2023-04-23T02:41:44.267Z,62.13
2023-04-23T02:44:11.742Z,65.78
2023-04-23T02:46:39.295Z,61.25
2023-04-23T02:49:06.879Z,57.63
2023-04-23T02:51:34.266Z,58.58
2023-04-23T02:54:04.024Z,59.63
2023-04-23T02:56:31.577Z,54.05
2023-04-23T02:58:58.964Z,55.83
2023-04-23T03:01:27.222Z,59.38
2023-04-23T03:03:55.549Z,54.25
2023-04-23T03:06:23.089Z,58.10
2023-04-23T03:08:50.650Z,54.88
2023-04-23T03:11:17.997Z,60.17
2023-04-23T03:13:45.826Z,58.65
2023-04-23T03:16:13.413Z,49.50
2023-04-23T03:22:59.403Z,52.67
2023-04-23T03:25:27.249Z,58.88
2023-04-23T03:27:54.785Z,61.40
2023-04-23T03:30:22.172Z,56.97
2023-04-23T03:32:50.863Z,56.63
2023-04-23T03:35:18.676Z,55.75
2023-04-23T03:37:48.623Z,56.67
2023-04-23T03:40:16.641Z,58.42
2023-04-23T03:42:47.536Z,57.35
2023-04-23T03:45:17.307Z,59.63
2023-04-23T03:47:45.474Z,49.40
2023-04-23T03:50:13.550Z,54.97
2023-04-23T03:52:43.165Z,55.75
2023-04-23T03:55:16.676Z,53.10
2023-04-23T03:57:46.450Z,56.70
2023-04-23T04:00:27.164Z,53.47
2023-04-23T04:02:54.726Z,49.90
2023-04-23T04:05:23.807Z,50.72
2023-04-23T04:07:54.389Z,53.15
2023-04-23T04:10:22.161Z,55.42
2023-04-23T04:12:49.635Z,52.13
2023-04-23T04:15:19.881Z,51.30
2023-04-23T04:17:47.475Z,53.05
2023-04-23T04:20:14.996Z,47.88
2023-04-23T04:22:42.605Z,55.03
2023-04-23T04:25:10.210Z,50.78
2023-04-23T04:27:37.727Z,49.72
2023-04-23T04:30:05.631Z,54.05
2023-04-23T04:32:33.639Z,48.72
2023-04-23T04:35:01.005Z,55.88
2023-04-23T04:37:28.383Z,52.45
2023-04-23T04:39:55.796Z,54.92
2023-04-23T04:42:23.301Z,57.88
2023-04-23T04:44:51.356Z,57.97
2023-04-23T04:47:19.053Z,59.13
2023-04-23T04:49:46.871Z,53.55
2023-04-23T04:52:14.224Z,60.45
2023-04-23T04:54:42.204Z,53.75
2023-04-23T04:57:11.006Z,56.42
2023-04-23T04:59:38.456Z,54.67
2023-04-23T05:02:05.880Z,46.85
2023-04-23T05:08:51.370Z,47.75
2023-04-23T05:11:20.072Z,45.75
2023-04-23T05:13:47.873Z,43.63
2023-04-23T05:16:15.328Z,45.28
2023-04-23T05:18:43.027Z,43.80
2023-04-23T05:21:10.436Z,43.22
2023-04-23T05:23:37.875Z,43.90
2023-04-23T05:26:05.349Z,42.90
2023-04-23T05:28:32.785Z,41.25
2023-04-23T05:31:00.299Z,40.60
2023-04-23T05:33:33.550Z,38.33
2023-04-23T05:36:08.324Z,39.38
2023-04-23T05:38:35.656Z,45.03
2023-04-23T05:41:03.110Z,38.72
2023-04-23T05:43:30.606Z,40.30
2023-04-23T05:45:58.133Z,38.08
2023-04-23T05:48:25.577Z,34.65
2023-04-23T05:50:53.158Z,34.65
2023-04-23T05:53:20.791Z,35.00
2023-04-23T05:55:48.270Z,38.65
2023-04-23T05:58:15.967Z,37.50
2023-04-23T06:00:43.365Z,38.85
2023-04-23T06:03:11.054Z,35.15
2023-04-23T06:05:38.797Z,35.65
2023-04-23T06:08:06.424Z,36.10
2023-04-23T06:10:33.708Z,37.42
2023-04-23T06:13:01.070Z,40.03
2023-04-23T06:15:28.395Z,34.97
2023-04-23T06:17:55.883Z,31.33
2023-04-23T06:20:23.528Z,36.75
2023-04-23T06:22:50.939Z,34.70
2023-04-23T06:25:18.278Z,35.70
2023-04-23T06:27:45.636Z,37.05
2023-04-23T06:30:25.625Z,33.85
2023-04-23T06:32:53.647Z,33.13
2023-04-23T06:39:29.566Z,35.78
2023-04-23T06:41:58.143Z,35.25
2023-04-23T06:44:35.541Z,33.65
2023-04-23T06:47:04.504Z,36.08
2023-04-23T06:49:31.994Z,34.95
2023-04-23T06:51:59.583Z,33.85
2023-04-23T06:54:27.213Z,36.88
2023-04-23T06:56:54.683Z,29.88
2023-04-23T06:59:22.071Z,33.30
2023-04-23T07:01:53.616Z,35.40
2023-04-23T07:04:21.005Z,31.02
2023-04-23T07:06:48.380Z,32.00
2023-04-23T07:09:15.777Z,32.13
2023-04-23T07:11:43.421Z,31.15
2023-04-23T07:14:10.803Z,32.05
2023-04-23T07:16:38.168Z,30.73
2023-04-23T07:19:05.697Z,31.85
2023-04-23T07:21:33.207Z,32.78
2023-04-23T07:24:03.425Z,31.65
2023-04-23T07:26:30.813Z,28.05
2023-04-23T07:28:58.254Z,31.35
2023-04-23T07:31:25.762Z,26.88
2023-04-23T07:33:53.193Z,27.27
2023-04-23T07:36:20.658Z,24.30
2023-04-23T07:38:48.248Z,25.90
2023-04-23T07:41:15.722Z,25.13
2023-04-23T07:43:43.494Z,24.33
2023-04-23T07:46:10.932Z,23.23
2023-04-23T07:48:38.337Z,30.65
2023-04-23T07:51:06.704Z,23.38
2023-04-23T07:53:34.194Z,26.63
2023-04-23T07:56:01.811Z,21.15
2023-04-23T07:58:29.512Z,22.05
2023-04-23T08:00:57.277Z,20.55
2023-04-23T08:03:25.006Z,21.02
2023-04-23T08:10:11.062Z,17.00
2023-04-23T08:12:38.472Z,19.10
2023-04-23T08:15:06.563Z,15.00
2023-04-23T08:17:39.365Z,16.45
2023-04-23T08:20:07.477Z,15.25
2023-04-23T08:22:34.944Z,17.02
2023-04-23T08:25:02.378Z,17.58
2023-04-23T08:27:30.504Z,17.88
2023-04-23T08:29:57.867Z,17.75
2023-04-23T08:32:30.771Z,13.13
2023-04-23T08:34:58.970Z,12.85
2023-04-23T08:37:30.789Z,17.08
2023-04-23T08:39:59.265Z,14.02
2023-04-23T08:42:52.917Z,12.18
2023-04-23T08:45:20.630Z,11.95
2023-04-23T08:47:48.428Z,12.65
2023-04-23T08:50:17.942Z,15.07
2023-04-23T08:52:51.265Z,11.63
2023-04-23T08:55:19.467Z,12.88
2023-04-23T08:57:47.321Z,11.82
2023-04-23T09:00:16.094Z,11.93
2023-04-23T09:02:44.744Z,13.85
2023-04-23T09:05:12.327Z,12.30
2023-04-23T09:07:39.902Z,13.18
2023-04-23T09:10:08.520Z,9.77
2023-04-23T09:12:36.394Z,10.65
2023-04-23T09:15:10.683Z,10.65
2023-04-23T09:17:44.119Z,10.48
2023-04-23T09:20:12.487Z,11.50
2023-04-23T09:22:47.547Z,13.40
2023-04-23T09:25:19.261Z,8.48
2023-04-23T09:27:47.443Z,10.40
2023-04-23T09:30:15.055Z,11.20
2023-04-23T09:32:43.646Z,9.30
2023-04-23T09:35:11.843Z,7.32
2023-04-23T09:37:42.345Z,11.32
2023-04-23T09:40:10.643Z,9.90
2023-04-23T09:42:38.264Z,7.15
2023-04-23T09:45:05.858Z,9.75
2023-04-23T09:47:34.288Z,8.60
2023-04-23T09:50:02.257Z,9.07
2023-04-23T09:52:32.044Z,10.93
2023-04-23T09:54:59.663Z,9.70
2023-04-23T09:57:27.083Z,11.40
2023-04-23T10:00:07.366Z,9.55
2023-04-23T10:02:46.885Z,9.35
2023-04-23T10:05:25.004Z,8.77
2023-04-23T10:08:00.552Z,8.35
2023-04-23T10:10:27.982Z,9.80
2023-04-23T10:12:56.672Z,11.15
2023-04-23T10:15:26.870Z,9.07
2023-04-23T10:17:55.789Z,8.77
2023-04-23T10:20:24.019Z,10.00
2023-04-23T10:22:53.420Z,7.88
2023-04-23T10:25:20.950Z,10.65
2023-04-23T10:27:54.323Z,10.02
2023-04-23T10:30:23.042Z,11.55
2023-04-23T10:32:51.530Z,9.85
2023-04-23T10:35:19.263Z,10.13
2023-04-23T10:37:48.424Z,8.75
2023-04-23T10:40:17.255Z,8.35
2023-04-23T10:42:45.519Z,10.40
2023-04-23T10:47:47.381Z,8.82
2023-04-23T10:50:37.797Z,7.50
2023-04-23T10:53:06.350Z,7.03
2023-04-23T10:55:33.921Z,7.55
2023-04-23T10:58:02.366Z,9.85
2023-04-23T11:00:32.017Z,7.38
2023-04-23T11:02:59.612Z,6.45
2023-04-23T11:05:29.424Z,8.07
2023-04-23T11:08:18.214Z,9.13
2023-04-23T11:10:57.250Z,9.73
2023-04-23T11:13:26.120Z,9.20
2023-04-23T11:16:12.310Z,8.63
2023-04-23T11:18:58.274Z,9.90
2023-04-23T11:21:51.840Z,9.35
2023-04-23T11:24:19.549Z,8.50
2023-04-23T11:26:48.099Z,8.25
2023-04-23T11:29:16.603Z,7.53
2023-04-23T11:31:58.478Z,10.35
2023-04-23T11:34:29.608Z,11.32
2023-04-23T11:36:59.423Z,8.13
2023-04-23T11:39:27.462Z,7.65
2023-04-23T11:41:55.147Z,7.13
2023-04-23T11:44:22.602Z,9.55
2023-04-23T11:46:50.916Z,7.15
2023-04-23T11:49:19.469Z,8.50
2023-04-23T11:51:47.309Z,7.13
2023-04-23T11:54:15.158Z,8.50
2023-04-23T11:56:43.717Z,9.23
2023-04-23T11:59:11.198Z,10.35
2023-04-23T12:01:45.995Z,9.05
2023-04-23T12:04:14.671Z,7.38
2023-04-23T12:06:42.961Z,8.13
2023-04-23T12:09:11.780Z,9.30
2023-04-23T12:11:39.499Z,8.38
2023-04-23T12:14:08.624Z,8.52
2023-04-23T12:16:38.854Z,7.78
2023-04-23T12:19:08.802Z,9.45
2023-04-23T12:21:36.817Z,6.93
2023-04-23T12:24:05.336Z,10.40
2023-04-23T12:26:32.742Z,7.75
2023-04-23T12:29:00.778Z,7.78
2023-04-23T12:31:28.932Z,9.07
2023-04-23T12:34:03.132Z,8.23
2023-04-23T12:36:31.538Z,6.68
2023-04-23T12:39:17.566Z,7.82
2023-04-23T12:41:44.966Z,6.88
2023-04-23T12:44:12.662Z,9.40
2023-04-23T12:46:40.136Z,6.43
2023-04-23T12:49:07.608Z,6.75
2023-04-23T12:51:34.952Z,6.82
2023-04-23T12:54:02.422Z,7.95
2023-04-23T12:56:29.878Z,8.27
2023-04-23T12:58:57.811Z,6.60
2023-04-23T13:01:25.169Z,5.95
2023-04-23T13:03:52.674Z,7.53
2023-04-23T13:06:20.115Z,7.80
2023-04-23T13:08:47.528Z,12.05
2023-04-23T13:11:14.924Z,7.15
2023-04-23T13:13:42.454Z,7.45
2023-04-23T13:16:09.925Z,8.43
2023-04-23T13:18:37.495Z,8.82
2023-04-23T13:21:05.005Z,9.43
2023-04-23T13:23:32.437Z,8.63
2023-04-23T13:25:59.763Z,9.77
2023-04-23T13:28:27.141Z,8.63
2023-04-23T13:30:54.585Z,8.50
2023-04-23T13:33:22.074Z,6.95
2023-04-23T13:35:49.446Z,7.97
2023-04-23T13:38:17.409Z,7.80
2023-04-23T13:40:44.927Z,8.77
2023-04-23T13:43:12.374Z,7.93
2023-04-23T13:45:39.807Z,8.43
2023-04-23T13:48:08.270Z,6.88
2023-04-23T13:50:35.929Z,7.55
2023-04-23T13:57:35.377Z,8.90
2023-04-23T14:00:02.843Z,9.77
2023-04-23T14:02:31.818Z,9.75
2023-04-23T14:04:59.450Z,5.95
2023-04-23T14:11:34.950Z,8.23
2023-04-23T14:14:02.475Z,6.90
2023-04-23T14:16:29.907Z,10.27
2023-04-23T14:18:57.289Z,9.52
2023-04-23T14:21:24.697Z,8.85
2023-04-23T14:23:55.920Z,7.55
2023-04-23T14:26:40.741Z,10.05
2023-04-23T14:29:25.526Z,7.18
2023-04-23T14:31:53.124Z,6.75
2023-04-23T14:34:21.229Z,7.05
2023-04-23T14:36:49.435Z,10.52
2023-04-23T14:39:17.193Z,6.82
2023-04-23T14:41:44.838Z,8.23
2023-04-23T14:44:12.506Z,6.40
2023-04-23T14:46:40.095Z,9.75
2023-04-23T14:49:07.548Z,11.95
2023-04-23T14:51:34.984Z,7.88
2023-04-23T14:54:02.489Z,7.18
2023-04-23T14:56:29.918Z,7.90
2023-04-23T14:58:57.455Z,8.05
2023-04-23T15:01:25.059Z,6.53
2023-04-23T15:03:53.541Z,10.48
2023-04-23T15:06:21.001Z,7.80
2023-04-23T15:08:48.381Z,8.25
2023-04-23T15:11:15.830Z,8.52
2023-04-23T15:13:43.196Z,7.75
2023-04-23T15:16:26.246Z,11.95
2023-04-23T15:19:03.634Z,8.27
2023-04-23T15:21:31.073Z,7.80
2023-04-23T15:23:58.518Z,6.75
2023-04-23T15:26:26.288Z,8.30
2023-04-23T15:28:53.635Z,6.63
2023-04-23T15:31:20.967Z,6.43
2023-04-23T15:33:48.448Z,8.10
2023-04-23T15:36:15.889Z,7.50
2023-04-23T15:42:51.919Z,7.07
2023-04-23T15:45:19.428Z,9.18
2023-04-23T15:47:46.856Z,9.20
2023-04-23T15:50:14.548Z,7.45
2023-04-23T15:52:41.992Z,8.77
2023-04-23T15:55:09.568Z,8.73
2023-04-23T15:57:36.920Z,7.18
2023-04-23T16:00:05.399Z,8.68
2023-04-23T16:02:39.331Z,6.82
2023-04-23T16:05:07.054Z,6.25
2023-04-23T16:07:34.546Z,6.40
2023-04-23T16:10:02.567Z,8.52
2023-04-23T16:12:29.964Z,9.55
2023-04-23T16:14:57.478Z,8.57
2023-04-23T16:17:27.945Z,7.55
2023-04-23T16:19:55.439Z,12.20
2023-04-23T16:22:22.817Z,11.27
2023-04-23T16:24:50.204Z,8.77
2023-04-23T16:27:17.685Z,8.82
2023-04-23T16:29:45.015Z,8.90
2023-04-23T16:32:12.373Z,9.73
2023-04-23T16:34:39.883Z,8.13
2023-04-23T16:37:07.550Z,9.45
2023-04-23T16:39:35.003Z,9.40
2023-04-23T16:42:02.523Z,8.77
2023-04-23T16:44:30.688Z,8.68
2023-04-23T16:46:59.493Z,8.88
2023-04-23T16:49:26.880Z,7.32
2023-04-23T16:56:32.107Z,8.32
2023-04-23T16:59:00.390Z,10.32
2023-04-23T17:01:27.884Z,10.98
2023-04-23T17:03:55.572Z,10.05
2023-04-23T17:06:27.507Z,10.10
2023-04-23T17:13:03.136Z,7.32
2023-04-23T17:15:30.887Z,9.32
2023-04-23T17:17:58.342Z,8.77
2023-04-23T17:20:26.057Z,8.52
2023-04-23T17:22:53.477Z,8.65
2023-04-23T17:25:20.917Z,10.57
2023-04-23T17:27:48.292Z,8.50
2023-04-23T17:30:15.862Z,14.88
2023-04-23T17:32:43.304Z,8.73
2023-04-23T17:35:11.222Z,9.18
2023-04-23T17:37:39.181Z,10.70
2023-04-23T17:40:06.881Z,10.35
2023-04-23T17:42:34.414Z,9.05
2023-04-23T17:45:01.785Z,8.93
2023-04-23T17:47:29.186Z,9.85
2023-04-23T17:49:56.771Z,10.85
2023-04-23T17:52:24.144Z,10.00
2023-04-23T17:54:51.635Z,10.27
2023-04-23T17:57:18.958Z,12.05
2023-04-23T17:59:46.300Z,9.65
2023-04-23T18:02:13.706Z,9.95
2023-04-23T18:04:41.119Z,10.80
2023-04-23T18:07:08.647Z,10.30
2023-04-23T18:13:54.574Z,10.48
2023-04-23T18:16:21.997Z,11.18
2023-04-23T18:18:49.546Z,12.20
2023-04-23T18:21:17.754Z,11.00
2023-04-23T18:23:46.218Z,11.35
2023-04-23T18:26:13.799Z,15.27
2023-04-23T18:28:41.496Z,14.52
2023-04-23T18:31:08.962Z,16.95
2023-04-23T18:33:49.538Z,12.52
2023-04-23T18:36:37.330Z,16.50
2023-04-23T18:39:04.886Z,11.40
2023-04-23T18:41:32.582Z,12.68
2023-04-23T18:44:00.465Z,16.77
2023-04-23T18:46:29.752Z,13.27
2023-04-23T18:48:58.484Z,13.90
2023-04-23T18:51:26.930Z,11.48
2023-04-23T18:53:54.797Z,15.73
2023-04-23T18:56:22.294Z,13.15
2023-04-23T18:58:49.825Z,13.85
2023-04-23T19:01:17.385Z,14.93
2023-04-23T19:03:44.868Z,16.85
2023-04-23T19:06:12.396Z,12.90
2023-04-23T19:08:39.745Z,12.98
2023-04-23T19:11:07.128Z,11.82
2023-04-23T19:13:34.709Z,13.55
2023-04-23T19:16:02.272Z,13.77
2023-04-23T19:18:29.712Z,13.23
2023-04-23T19:20:58.305Z,14.00
2023-04-23T19:23:25.872Z,11.40
2023-04-23T19:25:53.244Z,11.73
2023-04-23T19:28:20.967Z,14.13
2023-04-23T19:30:48.589Z,11.38
2023-04-23T19:33:16.102Z,11.85
2023-04-23T19:35:43.749Z,12.88
2023-04-23T19:38:11.297Z,12.73
2023-04-23T19:40:38.721Z,13.07
2023-04-23T19:43:06.124Z,13.98
2023-04-23T19:45:33.624Z,15.07
2023-04-23T19:48:01.239Z,10.65
2023-04-23T19:50:29.691Z,12.23
2023-04-23T19:52:57.051Z,12.02
2023-04-23T19:59:42.986Z,11.98
2023-04-23T20:02:11.086Z,13.35
2023-04-23T20:04:38.897Z,13.55
2023-04-23T20:07:07.086Z,11.30
2023-04-23T20:13:43.045Z,13.65
2023-04-23T20:16:12.428Z,13.43
2023-04-23T20:18:39.872Z,14.43
2023-04-23T20:21:09.093Z,13.70
2023-04-23T20:23:36.552Z,13.90
2023-04-23T20:26:04.161Z,15.02
2023-04-23T20:28:31.692Z,13.27
2023-04-23T20:30:59.077Z,14.95
2023-04-23T20:33:26.999Z,11.70
2023-04-23T20:35:54.663Z,14.63
2023-04-23T20:38:22.043Z,13.10
2023-04-23T20:44:57.820Z,11.95
2023-04-23T20:47:25.227Z,16.15
2023-04-23T20:49:52.618Z,16.42
2023-04-23T20:52:20.020Z,14.43
2023-04-23T20:54:47.390Z,16.50
2023-04-23T20:57:14.827Z,15.55
2023-04-23T20:59:43.232Z,17.08
2023-04-23T21:02:13.048Z,14.70
2023-04-23T21:04:40.804Z,14.23
2023-04-23T21:07:08.387Z,13.10
2023-04-23T21:09:35.906Z,15.55
2023-04-23T21:12:03.281Z,16.17
2023-04-23T21:14:31.772Z,16.05
2023-04-23T21:16:59.167Z,16.02
2023-04-23T21:19:26.716Z,17.08
2023-04-23T21:21:54.106Z,19.30
2023-04-23T21:24:21.598Z,16.25
2023-04-23T21:26:49.057Z,17.52
2023-04-23T21:29:16.714Z,15.52
2023-04-23T21:31:46.399Z,20.38
2023-04-23T21:34:14.756Z,17.40
2023-04-23T21:36:44.811Z,13.50
2023-04-23T21:39:13.285Z,15.95
2023-04-23T21:41:41.020Z,17.55
2023-04-23T21:44:08.878Z,18.30
2023-04-23T21:46:36.352Z,16.73
2023-04-23T21:49:03.753Z,20.80
2023-04-23T21:51:31.182Z,15.50
2023-04-23T21:53:58.554Z,14.63
2023-04-23T22:00:45.130Z,19.92
2023-04-23T22:03:14.821Z,15.57
2023-04-23T22:05:48.016Z,16.23
2023-04-23T22:08:16.576Z,15.65
2023-04-23T22:15:01.834Z,17.10
2023-04-23T22:17:30.641Z,16.60
2023-04-23T22:19:58.121Z,18.42
2023-04-23T22:22:25.755Z,18.60
2023-04-23T22:24:53.116Z,14.50
2023-04-23T22:27:20.573Z,15.57
2023-04-23T22:29:47.933Z,17.38
2023-04-23T22:32:15.444Z,20.33
2023-04-23T22:34:42.938Z,15.77
2023-04-23T22:37:10.328Z,15.30
2023-04-23T22:39:37.696Z,19.17
2023-04-23T22:42:05.101Z,16.88
2023-04-23T22:44:32.439Z,17.10
2023-04-23T22:46:59.881Z,17.90
2023-04-23T22:49:27.171Z,16.52
2023-04-23T22:51:54.692Z,18.20
2023-04-23T22:54:22.112Z,16.92
2023-04-23T23:01:08.587Z,14.30
2023-04-23T23:03:36.141Z,15.23
2023-04-23T23:06:03.533Z,16.30
2023-04-23T23:08:30.921Z,19.15
2023-04-23T23:15:07.810Z,19.25
2023-04-23T23:17:35.290Z,14.95
2023-04-23T23:20:02.852Z,13.55
2023-04-23T23:22:30.478Z,16.58
2023-04-23T23:24:57.922Z,13.52
2023-04-23T23:27:26.003Z,16.63
2023-04-23T23:29:53.581Z,15.43
2023-04-23T23:32:21.171Z,12.98
2023-04-23T23:34:48.638Z,13.18
2023-04-23T23:37:16.724Z,11.48
2023-04-23T23:39:44.311Z,14.15
2023-04-23T23:46:29.451Z,15.02
2023-04-23T23:48:56.986Z,11.88
2023-04-23T23:51:24.339Z,13.60
2023-04-23T23:53:51.831Z,13.50
2023-04-23T23:56:20.082Z,14.32
2023-04-23T23:58:47.803Z,16.42
